ROMMA est une association bénévole à but non lucratif. Votre soutien est indispensable : ADHERER à ROMMA ou FAIRE un DON

Nice - (06, Alpes-Maritimes)

Côte-d'Azur (190 m)   Longitude: 07° 14' E   Latitude: 43° 43' N Station partenaire n°136
 

Détail journalier du     <<     >>

Température Precipitation Humidité Pression Vent Dir Rafale Dir. rafale Ensol.
Heure (°C) (mm) (%) (hPa) (km/h) (km/h) (min)
01:00 17.708410211---6NNO0
02:00 17.808210213NNO11NNE0
03:00 17.908410212NNO13N0
04:00 17.808110211NNO6NNO0
05:00 17.608010203N13NNO0
06:00 17.407810203NNO13N0
07:00 18.507310206NNO19NO0
08:00 18.707210206NNO19NNO0
09:00 18.607310204NNO16NNO0
10:00 21.606410215NNO16NNO50
11:00 23.306610216ESE15ESE60
12:00 23.806510207ESE21ESE60
13:00 24.2065102013ESE27ESE50
14:00 24.1066101914ESE26ESE60
15:00 23.9066101815ESE29ESE60
16:00 23.4069101814ESE29ESE60
17:00 22.6072101712ESE23ESE60
18:00 21.407510178ESE21ESE0
19:00 20.108010174ESE15SE0
20:00 18.808410172ONO10SE0
21:00 19.108510185ONO11ONO0
22:00 19.008410175ONO11ONO0
23:00 18.808410172NO8NNO0
minuit 18.208410163NNO8N0

Graphique du 14-10-2019

 

Serveur OMMA